createdAt,value
2018-01-06T00:00:20.512Z,7.57
2018-01-06T00:01:01.095Z,7.53
2018-01-06T00:01:41.676Z,7.56
2018-01-06T00:02:22.290Z,7.51
2018-01-06T00:03:02.869Z,7.5
2018-01-06T00:03:43.439Z,7.57
2018-01-06T00:04:24.053Z,7.54
2018-01-06T00:05:04.646Z,7.56
2018-01-06T00:05:45.230Z,7.57
2018-01-06T00:06:25.827Z,7.54
2018-01-06T00:07:06.419Z,7.58
2018-01-06T00:07:47.014Z,7.53
2018-01-06T00:08:27.576Z,7.5
2018-01-06T00:09:08.153Z,7.54
2018-01-06T00:09:48.725Z,7.53
2018-01-06T00:10:29.296Z,7.47
2018-01-06T00:11:09.876Z,7.4
2018-01-06T00:11:50.464Z,7.5
2018-01-06T00:12:31.031Z,7.39
2018-01-06T00:13:11.607Z,7.47
2018-01-06T00:13:52.184Z,7.42
2018-01-06T00:14:32.778Z,7.36
2018-01-06T00:15:13.386Z,7.42
2018-01-06T00:15:53.967Z,7.35
2018-01-06T00:16:34.545Z,7.42
2018-01-06T00:17:15.110Z,7.4
2018-01-06T00:17:55.705Z,7.39
2018-01-06T00:18:36.271Z,7.47
2018-01-06T00:19:16.857Z,7.47
2018-01-06T00:19:57.464Z,7.43
2018-01-06T00:20:38.076Z,7.4
2018-01-06T00:21:18.649Z,7.35
2018-01-06T00:21:59.216Z,7.38
2018-01-06T00:22:39.795Z,7.4
2018-01-06T00:23:20.373Z,7.43
2018-01-06T00:24:01.018Z,7.47
2018-01-06T00:24:41.587Z,7.4
2018-01-06T00:25:22.270Z,7.42
2018-01-06T00:26:02.829Z,7.35
2018-01-06T00:26:43.412Z,7.36
2018-01-06T00:27:23.976Z,7.36
2018-01-06T00:28:04.551Z,7.31
2018-01-06T00:28:45.127Z,7.36
2018-01-06T00:29:25.693Z,7.28
2018-01-06T00:30:06.249Z,7.35
2018-01-06T00:30:46.818Z,7.25
2018-01-06T00:31:27.387Z,7.29
2018-01-06T00:32:07.963Z,7.24
2018-01-06T00:32:48.551Z,7.25
2018-01-06T00:33:29.133Z,7.33
2018-01-06T00:34:09.746Z,7.25
2018-01-06T00:34:50.329Z,7.31
2018-01-06T00:35:30.935Z,7.33
2018-01-06T00:36:11.502Z,7.28
2018-01-06T00:36:52.058Z,7.32
2018-01-06T00:37:32.643Z,7.28
2018-01-06T00:38:13.227Z,7.32
2018-01-06T00:38:53.792Z,7.35
2018-01-06T00:39:34.365Z,7.25
2018-01-06T00:40:14.925Z,7.29
2018-01-06T00:40:55.481Z,7.24
2018-01-06T00:41:36.120Z,7.29
2018-01-06T00:42:16.686Z,7.2
2018-01-06T00:42:57.257Z,7.23
2018-01-06T00:43:37.831Z,7.29
2018-01-06T00:44:18.421Z,7.28
2018-01-06T00:44:58.987Z,7.15
2018-01-06T00:45:39.563Z,7.28
2018-01-06T00:46:20.139Z,7.31
2018-01-06T00:47:00.704Z,7.25
2018-01-06T00:47:41.278Z,7.31
2018-01-06T00:48:21.843Z,7.29
2018-01-06T00:49:02.400Z,7.31
2018-01-06T00:49:42.966Z,7.36
2018-01-06T00:50:23.526Z,7.32
2018-01-06T00:51:04.122Z,7.29
2018-01-06T00:51:44.690Z,7.29
2018-01-06T00:52:25.262Z,7.31
2018-01-06T00:53:05.814Z,7.24
2018-01-06T00:53:46.414Z,7.31
2018-01-06T00:54:26.979Z,7.24
2018-01-06T00:55:07.564Z,7.28
2018-01-06T00:55:48.166Z,7.33
2018-01-06T00:56:28.732Z,7.31
2018-01-06T00:57:09.306Z,7.25
2018-01-06T00:57:49.879Z,7.33
2018-01-06T00:58:30.490Z,7.32
2018-01-06T00:59:11.063Z,7.33
2018-01-06T00:59:51.636Z,7.31
2018-01-06T01:00:32.224Z,7.29
2018-01-06T01:01:12.817Z,7.32
2018-01-06T01:01:53.434Z,7.35
2018-01-06T01:02:34.015Z,7.25
2018-01-06T01:03:14.592Z,7.17
2018-01-06T01:03:55.213Z,7.15
2018-01-06T01:04:35.800Z,7.15
2018-01-06T01:05:16.409Z,7.21
2018-01-06T01:05:56.989Z,7.17
2018-01-06T01:06:37.568Z,7.15
2018-01-06T01:07:18.151Z,7.15
2018-01-06T01:07:58.727Z,7.15
2018-01-06T01:08:39.296Z,7.14
2018-01-06T01:09:19.886Z,7.14
2018-01-06T01:10:00.472Z,7.03
2018-01-06T01:10:41.025Z,7.02
2018-01-06T01:11:21.597Z,7.03
2018-01-06T01:12:02.162Z,7.03
2018-01-06T01:12:42.732Z,7
2018-01-06T01:13:23.319Z,7.13
2018-01-06T01:14:03.884Z,7.03
2018-01-06T01:14:44.465Z,7.05
2018-01-06T01:15:25.052Z,7.14
2018-01-06T01:16:05.623Z,7.1
2018-01-06T01:16:46.197Z,7.11
2018-01-06T01:17:26.775Z,7.13
2018-01-06T01:18:07.365Z,7.13
2018-01-06T01:18:47.971Z,7.13
2018-01-06T01:19:28.536Z,7.2
2018-01-06T01:20:09.139Z,7.1
2018-01-06T01:20:49.703Z,7.21
2018-01-06T01:21:30.286Z,7.1
2018-01-06T01:22:10.883Z,7.15
2018-01-06T01:22:51.462Z,7.17
2018-01-06T01:23:32.040Z,7.11
2018-01-06T01:24:12.607Z,7.14
2018-01-06T01:24:53.194Z,7.17
2018-01-06T01:25:33.751Z,7.14
2018-01-06T01:26:14.354Z,7.13
2018-01-06T01:26:54.937Z,7.15
2018-01-06T01:27:35.524Z,7.17
2018-01-06T01:28:16.112Z,7.15
2018-01-06T01:28:56.668Z,7.15
2018-01-06T01:29:37.231Z,7.15
2018-01-06T01:30:17.786Z,7.15
2018-01-06T01:30:58.346Z,7.17
2018-01-06T01:31:38.918Z,7.15
2018-01-06T01:32:19.488Z,7.1
2018-01-06T01:33:00.052Z,7.2
2018-01-06T01:33:40.636Z,7.2
2018-01-06T01:34:21.204Z,7.15
2018-01-06T01:35:01.828Z,7.18
2018-01-06T01:35:42.379Z,7.17
2018-01-06T01:36:22.932Z,7.15
2018-01-06T01:37:03.508Z,7.15
2018-01-06T01:37:44.101Z,7.15
2018-01-06T01:38:24.685Z,7.18
2018-01-06T01:39:05.292Z,7.24
2018-01-06T01:39:45.905Z,7.15
2018-01-06T01:40:26.477Z,7.11
2018-01-06T01:41:07.076Z,7.2
2018-01-06T01:41:47.656Z,7.2
2018-01-06T01:42:28.210Z,7.14
2018-01-06T01:43:08.783Z,7.18
2018-01-06T01:43:49.359Z,7.18
2018-01-06T01:44:29.927Z,7.17
2018-01-06T01:45:10.500Z,7.21
2018-01-06T01:45:51.063Z,7.23
2018-01-06T01:46:31.635Z,7.2
2018-01-06T01:47:12.216Z,7.18
2018-01-06T01:47:52.791Z,7.24
2018-01-06T01:48:33.367Z,7.18
2018-01-06T01:49:13.949Z,7.18
2018-01-06T01:49:54.521Z,7.21
2018-01-06T01:50:35.077Z,7.23
2018-01-06T01:51:15.642Z,7.24
2018-01-06T01:51:56.213Z,7.2
2018-01-06T01:52:36.825Z,7.21
2018-01-06T01:53:17.398Z,7.24
2018-01-06T01:53:57.971Z,7.2
2018-01-06T01:54:41.351Z,7.21
2018-01-06T01:55:21.930Z,7.18
2018-01-06T01:56:02.496Z,7.2
2018-01-06T01:56:43.062Z,7.17
2018-01-06T01:57:23.620Z,7.17
2018-01-06T01:58:04.175Z,7.15
2018-01-06T01:58:44.736Z,7.2
2018-01-06T01:59:25.293Z,7.15
2018-01-06T02:00:05.864Z,7.18
2018-01-06T02:00:46.417Z,7.21
2018-01-06T02:01:26.982Z,7.24
2018-01-06T02:02:07.555Z,7.15
2018-01-06T02:02:48.124Z,7.21
2018-01-06T02:03:28.713Z,7.2
2018-01-06T02:04:09.271Z,7.21
2018-01-06T02:04:49.839Z,7.17
2018-01-06T02:05:30.418Z,7.21
2018-01-06T02:06:10.979Z,7.2
2018-01-06T02:06:51.540Z,7.23
2018-01-06T02:07:32.097Z,7.18
2018-01-06T02:08:12.681Z,7.21
2018-01-06T02:08:53.236Z,7.21
2018-01-06T02:09:33.823Z,7.24
2018-01-06T02:10:14.393Z,7.15
2018-01-06T02:10:54.974Z,7.21
2018-01-06T02:11:35.599Z,7.18
2018-01-06T02:12:16.150Z,7.17
2018-01-06T02:12:56.728Z,7.25
2018-01-06T02:13:37.298Z,7.2
2018-01-06T02:14:17.921Z,7.21
2018-01-06T02:14:58.484Z,7.28
2018-01-06T02:15:39.062Z,7.18
2018-01-06T02:16:19.646Z,7.23
2018-01-06T02:17:00.202Z,7.24
2018-01-06T02:17:40.776Z,7.28
2018-01-06T02:18:21.359Z,7.24
2018-01-06T02:19:01.925Z,7.21
2018-01-06T02:19:42.506Z,7.14
2018-01-06T02:20:23.080Z,7.14
2018-01-06T02:21:03.654Z,7.17
2018-01-06T02:21:44.234Z,7.11
2018-01-06T02:22:24.822Z,7.05
2018-01-06T02:23:05.389Z,7.02
2018-01-06T02:23:45.949Z,7.06
2018-01-06T02:24:26.521Z,7.05
2018-01-06T02:25:07.132Z,7.07
2018-01-06T02:25:47.755Z,6.97
2018-01-06T02:26:28.332Z,7.06
2018-01-06T02:27:08.921Z,6.97
2018-01-06T02:27:49.490Z,6.96
2018-01-06T02:28:30.097Z,6.97
2018-01-06T02:29:10.680Z,6.97
2018-01-06T02:29:51.274Z,7.05
2018-01-06T02:30:31.859Z,6.97
2018-01-06T02:31:12.458Z,6.99
2018-01-06T02:31:53.057Z,7.05
2018-01-06T02:32:33.638Z,7.05
2018-01-06T02:33:14.284Z,6.96
2018-01-06T02:33:54.857Z,6.95
2018-01-06T02:34:35.427Z,6.95
2018-01-06T02:35:16.029Z,6.89
2018-01-06T02:35:56.608Z,6.84
2018-01-06T02:36:37.195Z,6.88
2018-01-06T02:37:17.770Z,6.89
2018-01-06T02:37:58.356Z,6.89
2018-01-06T02:38:38.917Z,6.93
2018-01-06T02:39:19.500Z,6.84
2018-01-06T02:40:00.065Z,6.85
2018-01-06T02:40:40.617Z,6.87
2018-01-06T02:41:21.183Z,6.85
2018-01-06T02:42:01.756Z,6.85
2018-01-06T02:42:42.337Z,6.87
2018-01-06T02:43:22.905Z,6.85
2018-01-06T02:44:03.483Z,6.84
2018-01-06T02:44:44.034Z,6.87
2018-01-06T02:45:24.621Z,6.85
2018-01-06T02:46:05.192Z,6.84
2018-01-06T02:46:45.798Z,6.85
2018-01-06T02:47:26.364Z,6.81
2018-01-06T02:48:06.928Z,6.87
2018-01-06T02:48:47.503Z,6.85
2018-01-06T02:49:28.096Z,6.84
2018-01-06T02:50:08.670Z,6.81
2018-01-06T02:50:49.240Z,6.84
2018-01-06T02:51:29.860Z,6.85
2018-01-06T02:52:10.471Z,6.78
2018-01-06T02:52:51.033Z,6.78
2018-01-06T02:53:31.609Z,6.67
2018-01-06T02:54:12.193Z,6.67
2018-01-06T02:54:52.755Z,6.77
2018-01-06T02:55:33.339Z,6.74
2018-01-06T02:56:13.905Z,6.72
2018-01-06T02:56:54.461Z,6.72
2018-01-06T02:57:35.019Z,6.81
2018-01-06T02:58:15.596Z,6.69
2018-01-06T02:58:56.160Z,6.7
2018-01-06T02:59:36.726Z,6.78
2018-01-06T03:00:17.299Z,6.69
2018-01-06T03:00:57.883Z,6.77
2018-01-06T03:01:38.474Z,6.67
2018-01-06T03:02:19.029Z,6.66
2018-01-06T03:02:59.605Z,6.69
2018-01-06T03:03:40.182Z,6.69
2018-01-06T03:04:20.782Z,6.7
2018-01-06T03:05:01.365Z,6.69
2018-01-06T03:05:41.943Z,6.66
2018-01-06T03:06:22.524Z,6.69
2018-01-06T03:07:03.109Z,6.74
2018-01-06T03:07:43.675Z,6.69
2018-01-06T03:08:24.250Z,6.74
2018-01-06T03:09:04.816Z,6.64
2018-01-06T03:09:45.386Z,6.69
2018-01-06T03:10:25.982Z,6.77
2018-01-06T03:11:06.533Z,6.72
2018-01-06T03:11:47.108Z,6.79
2018-01-06T03:12:27.680Z,6.74
2018-01-06T03:13:08.256Z,6.78
2018-01-06T03:13:48.842Z,6.74
2018-01-06T03:14:29.422Z,6.69
2018-01-06T03:15:09.994Z,6.72
2018-01-06T03:15:50.573Z,6.81
2018-01-06T03:16:31.146Z,6.81
2018-01-06T03:17:11.755Z,6.69
2018-01-06T03:17:52.322Z,6.7
2018-01-06T03:18:32.887Z,6.67
2018-01-06T03:19:13.465Z,6.78
2018-01-06T03:19:54.059Z,6.67
2018-01-06T03:20:34.647Z,6.7
2018-01-06T03:21:15.221Z,6.72
2018-01-06T03:21:55.791Z,6.69
2018-01-06T03:22:36.360Z,6.62
2018-01-06T03:23:16.926Z,6.62
2018-01-06T03:23:57.486Z,6.63
2018-01-06T03:24:38.069Z,6.56
2018-01-06T03:25:18.652Z,6.64
2018-01-06T03:25:59.224Z,6.6
2018-01-06T03:26:39.821Z,6.54
2018-01-06T03:27:20.394Z,6.59
2018-01-06T03:28:00.965Z,6.59
2018-01-06T03:28:41.551Z,6.52
2018-01-06T03:29:22.167Z,6.56
2018-01-06T03:30:02.732Z,6.42
2018-01-06T03:30:43.303Z,6.42
2018-01-06T03:31:23.922Z,6.52
2018-01-06T03:32:04.490Z,6.46
2018-01-06T03:32:45.066Z,6.45
2018-01-06T03:33:25.661Z,6.48
2018-01-06T03:34:06.264Z,6.46
2018-01-06T03:34:46.833Z,6.41
2018-01-06T03:35:27.430Z,6.38
2018-01-06T03:36:08.017Z,6.38
2018-01-06T03:36:48.606Z,6.36
2018-01-06T03:37:29.193Z,6.3
2018-01-06T03:38:09.777Z,6.35
2018-01-06T03:38:50.362Z,6.38
2018-01-06T03:39:30.963Z,6.35
2018-01-06T03:40:11.563Z,6.27
2018-01-06T03:40:52.145Z,6.24
2018-01-06T03:41:32.739Z,6.19
2018-01-06T03:42:13.392Z,6.3
2018-01-06T03:42:54.045Z,6.28
2018-01-06T03:43:34.619Z,6.31
2018-01-06T03:44:15.225Z,6.31
2018-01-06T03:44:55.790Z,6.24
2018-01-06T03:45:36.361Z,6.3
2018-01-06T03:46:16.917Z,6.35
2018-01-06T03:46:57.489Z,6.31
2018-01-06T03:47:38.070Z,6.31
2018-01-06T03:48:18.649Z,6.3
2018-01-06T03:48:59.235Z,6.31
2018-01-06T03:49:39.828Z,6.28
2018-01-06T03:50:20.400Z,6.31
2018-01-06T03:51:01.022Z,6.28
2018-01-06T03:51:41.616Z,6.26
2018-01-06T03:52:22.251Z,6.3
2018-01-06T03:53:02.829Z,6.31
2018-01-06T03:53:43.397Z,6.36
2018-01-06T03:54:23.996Z,6.36
2018-01-06T03:55:04.562Z,6.42
2018-01-06T03:55:45.133Z,6.33
2018-01-06T03:56:25.771Z,6.31
2018-01-06T03:57:06.318Z,6.41
2018-01-06T03:57:46.894Z,6.41
2018-01-06T03:58:27.556Z,6.44
2018-01-06T03:59:08.100Z,6.42
2018-01-06T03:59:48.672Z,6.35
2018-01-06T04:00:29.255Z,6.35
2018-01-06T04:01:09.821Z,6.41
2018-01-06T04:01:50.404Z,6.49
2018-01-06T04:02:30.989Z,6.49
2018-01-06T04:03:11.578Z,6.54
2018-01-06T04:03:52.161Z,6.46
2018-01-06T04:04:32.757Z,6.52
2018-01-06T04:05:13.344Z,6.48
2018-01-06T04:05:53.929Z,6.59
2018-01-06T04:06:34.538Z,6.51
2018-01-06T04:07:15.099Z,6.57
2018-01-06T04:07:55.712Z,6.57
2018-01-06T04:08:36.304Z,6.62
2018-01-06T04:09:16.895Z,6.64
2018-01-06T04:09:57.470Z,6.59
2018-01-06T04:10:38.048Z,6.64
2018-01-06T04:11:18.660Z,6.64
2018-01-06T04:11:59.255Z,6.63
2018-01-06T04:12:39.816Z,6.69
2018-01-06T04:13:20.379Z,6.62
2018-01-06T04:14:00.962Z,6.63
2018-01-06T04:14:41.529Z,6.7
2018-01-06T04:15:22.147Z,6.69
2018-01-06T04:16:02.738Z,6.64
2018-01-06T04:16:43.326Z,6.62
2018-01-06T04:17:23.889Z,6.69
2018-01-06T04:18:04.471Z,6.64
2018-01-06T04:18:45.081Z,6.74
2018-01-06T04:19:25.655Z,6.74
2018-01-06T04:20:06.244Z,6.74
2018-01-06T04:20:46.815Z,6.6
2018-01-06T04:21:27.381Z,6.72
2018-01-06T04:22:07.934Z,6.7
2018-01-06T04:22:48.503Z,6.72
2018-01-06T04:23:29.132Z,6.74
2018-01-06T04:24:09.729Z,6.62
2018-01-06T04:24:50.307Z,6.69
2018-01-06T04:25:30.914Z,6.6
2018-01-06T04:26:11.486Z,6.69
2018-01-06T04:26:52.048Z,6.57
2018-01-06T04:27:32.608Z,6.62
2018-01-06T04:28:13.202Z,6.67
2018-01-06T04:28:53.782Z,6.62
2018-01-06T04:29:34.399Z,6.72
2018-01-06T04:30:14.984Z,6.69
2018-01-06T04:30:55.563Z,6.69
2018-01-06T04:31:36.135Z,6.69
2018-01-06T04:32:16.709Z,6.56
2018-01-06T04:32:57.275Z,6.69
2018-01-06T04:33:37.837Z,6.72
2018-01-06T04:34:18.447Z,6.67
2018-01-06T04:34:59.023Z,6.75
2018-01-06T04:35:39.606Z,6.75
2018-01-06T04:36:20.226Z,6.7
2018-01-06T04:37:00.796Z,6.74
2018-01-06T04:37:41.371Z,6.67
2018-01-06T04:38:21.973Z,6.74
2018-01-06T04:39:02.571Z,6.7
2018-01-06T04:39:43.145Z,6.7
2018-01-06T04:40:23.710Z,6.7
2018-01-06T04:41:04.294Z,6.57
2018-01-06T04:41:44.850Z,6.64
2018-01-06T04:42:25.437Z,6.72
2018-01-06T04:43:06.041Z,6.74
2018-01-06T04:43:46.603Z,6.7
2018-01-06T04:44:27.182Z,6.72
2018-01-06T04:45:07.764Z,6.75
2018-01-06T04:45:48.319Z,6.72
2018-01-06T04:46:28.910Z,6.69
2018-01-06T04:47:09.475Z,6.75
2018-01-06T04:47:50.046Z,6.74
2018-01-06T04:48:30.669Z,6.72
2018-01-06T04:49:11.248Z,6.69
2018-01-06T04:49:51.817Z,6.7
2018-01-06T04:50:32.412Z,6.72
2018-01-06T04:51:12.980Z,6.67
2018-01-06T04:51:53.554Z,6.72
2018-01-06T04:52:34.184Z,6.74
2018-01-06T04:53:14.779Z,6.74
2018-01-06T04:53:55.374Z,6.69
2018-01-06T04:54:35.981Z,6.7
2018-01-06T04:55:16.548Z,6.74
2018-01-06T04:55:57.104Z,6.72
2018-01-06T04:56:37.671Z,6.75
2018-01-06T04:57:18.256Z,6.74
2018-01-06T04:57:58.858Z,6.7
2018-01-06T04:58:39.446Z,6.74
2018-01-06T04:59:20.008Z,6.69
2018-01-06T05:00:00.582Z,6.77
2018-01-06T05:00:41.145Z,6.7
2018-01-06T05:01:21.737Z,6.69
2018-01-06T05:02:02.363Z,6.77
2018-01-06T05:02:42.905Z,6.75
2018-01-06T05:03:23.475Z,6.75
2018-01-06T05:04:04.062Z,6.74
2018-01-06T05:04:44.623Z,6.69
2018-01-06T05:05:25.237Z,6.69
2018-01-06T05:06:05.819Z,6.75
2018-01-06T05:06:46.402Z,6.72
2018-01-06T05:07:26.972Z,6.75
2018-01-06T05:08:07.589Z,6.74
2018-01-06T05:08:48.220Z,6.67
2018-01-06T05:09:28.776Z,6.72
2018-01-06T05:10:09.345Z,6.75
2018-01-06T05:10:49.914Z,6.64
2018-01-06T05:11:30.500Z,6.67
2018-01-06T05:12:11.125Z,6.69
2018-01-06T05:12:51.739Z,6.7
2018-01-06T05:13:32.344Z,6.77
2018-01-06T05:14:12.916Z,6.67
2018-01-06T05:14:53.485Z,6.75
2018-01-06T05:15:34.083Z,6.74
2018-01-06T05:16:14.711Z,6.75
2018-01-06T05:16:55.288Z,6.75
2018-01-06T05:17:35.909Z,6.69
2018-01-06T05:18:16.503Z,6.77
2018-01-06T05:18:57.062Z,6.79
2018-01-06T05:19:37.631Z,6.79
2018-01-06T05:20:18.207Z,6.74
2018-01-06T05:20:58.794Z,6.78
2018-01-06T05:21:39.409Z,6.77
2018-01-06T05:22:19.989Z,6.72
2018-01-06T05:23:00.564Z,6.72
2018-01-06T05:23:41.144Z,6.69
2018-01-06T05:24:21.705Z,6.74
2018-01-06T05:25:02.281Z,6.67
2018-01-06T05:25:42.837Z,6.74
2018-01-06T05:26:23.395Z,6.7
2018-01-06T05:27:03.981Z,6.72
2018-01-06T05:27:44.548Z,6.74
2018-01-06T05:28:25.128Z,6.72
2018-01-06T05:29:05.701Z,6.7
2018-01-06T05:29:46.254Z,6.77
2018-01-06T05:30:26.823Z,6.72
2018-01-06T05:31:07.455Z,6.69
2018-01-06T05:31:48.028Z,6.7
2018-01-06T05:32:28.647Z,6.7
2018-01-06T05:33:09.225Z,6.72
2018-01-06T05:33:49.814Z,6.62
2018-01-06T05:34:30.406Z,6.66
2018-01-06T05:35:10.999Z,6.69
2018-01-06T05:35:51.614Z,6.7
2018-01-06T05:36:32.226Z,6.66
2018-01-06T05:37:12.777Z,6.74
2018-01-06T05:37:53.360Z,6.64
2018-01-06T05:38:33.920Z,6.56
2018-01-06T05:39:14.508Z,6.62
2018-01-06T05:39:55.139Z,6.7
2018-01-06T05:40:35.766Z,6.7
2018-01-06T05:41:16.302Z,6.7
2018-01-06T05:41:56.868Z,6.7
2018-01-06T05:42:37.451Z,6.72
2018-01-06T05:43:18.018Z,6.74
2018-01-06T05:43:58.608Z,6.72
2018-01-06T05:44:39.226Z,6.72
2018-01-06T05:45:19.809Z,6.7
2018-01-06T05:46:00.435Z,6.69
2018-01-06T05:46:40.993Z,6.67
2018-01-06T05:47:21.597Z,6.66
2018-01-06T05:48:02.208Z,6.64
2018-01-06T05:48:42.787Z,6.6
2018-01-06T05:49:23.353Z,6.69
2018-01-06T05:50:03.938Z,6.64
2018-01-06T05:50:44.535Z,6.66
2018-01-06T05:51:25.117Z,6.6
2018-01-06T05:52:05.693Z,6.66
2018-01-06T05:52:46.263Z,6.6
2018-01-06T05:53:26.835Z,6.59
2018-01-06T05:54:07.448Z,6.62
2018-01-06T05:54:48.039Z,6.6
2018-01-06T05:55:28.624Z,6.64
2018-01-06T05:56:09.184Z,6.63
2018-01-06T05:56:49.813Z,6.64
2018-01-06T05:57:30.369Z,6.57
2018-01-06T05:58:10.940Z,6.56
2018-01-06T05:58:51.507Z,6.62
2018-01-06T05:59:32.173Z,6.45
2018-01-06T06:00:12.772Z,6.57
2018-01-06T06:00:53.338Z,6.52
2018-01-06T06:01:33.906Z,6.54
2018-01-06T06:02:14.502Z,6.57
2018-01-06T06:02:55.068Z,6.59
2018-01-06T06:03:35.655Z,6.62
2018-01-06T06:04:16.231Z,6.6
2018-01-06T06:04:56.807Z,6.57
2018-01-06T06:05:37.436Z,6.63
2018-01-06T06:06:17.989Z,6.57
2018-01-06T06:06:58.645Z,6.64
2018-01-06T06:07:39.210Z,6.62
2018-01-06T06:08:19.805Z,6.67
2018-01-06T06:09:00.375Z,6.57
2018-01-06T06:09:40.985Z,6.6
2018-01-06T06:10:21.588Z,6.57
2018-01-06T06:11:02.122Z,6.59
2018-01-06T06:11:42.774Z,6.57
2018-01-06T06:12:23.339Z,6.62
2018-01-06T06:13:03.911Z,6.6
2018-01-06T06:13:44.479Z,6.62
2018-01-06T06:14:25.051Z,6.64
2018-01-06T06:15:05.623Z,6.6
2018-01-06T06:15:46.218Z,6.59
2018-01-06T06:16:26.792Z,6.62
2018-01-06T06:17:07.390Z,6.67
2018-01-06T06:17:47.955Z,6.66
2018-01-06T06:18:28.527Z,6.66
2018-01-06T06:19:09.117Z,6.59
2018-01-06T06:19:49.698Z,6.6
2018-01-06T06:20:30.261Z,6.7
2018-01-06T06:21:10.834Z,6.54
2018-01-06T06:21:51.436Z,6.62
2018-01-06T06:22:32.001Z,6.72
2018-01-06T06:23:12.572Z,6.59
2018-01-06T06:23:53.134Z,6.59
2018-01-06T06:24:33.707Z,6.74
2018-01-06T06:25:14.285Z,6.74
2018-01-06T06:25:54.935Z,6.67
2018-01-06T06:26:35.510Z,6.67
2018-01-06T06:27:16.128Z,6.7
2018-01-06T06:27:56.868Z,6.75
2018-01-06T06:28:37.433Z,6.74
2018-01-06T06:29:18.017Z,6.7
2018-01-06T06:29:58.648Z,6.74
2018-01-06T06:30:39.202Z,6.75
2018-01-06T06:31:19.782Z,6.64
2018-01-06T06:32:00.406Z,6.74
2018-01-06T06:32:41.005Z,6.75
2018-01-06T06:33:21.577Z,6.72
2018-01-06T06:34:02.181Z,6.7
2018-01-06T06:34:42.747Z,6.6
2018-01-06T06:35:23.325Z,6.66
2018-01-06T06:36:03.906Z,6.64
2018-01-06T06:36:44.464Z,6.63
2018-01-06T06:37:25.051Z,6.67
2018-01-06T06:38:05.626Z,6.66
2018-01-06T06:38:46.216Z,6.62
2018-01-06T06:39:26.790Z,6.57
2018-01-06T06:40:07.384Z,6.59
2018-01-06T06:40:47.959Z,6.6
2018-01-06T06:41:28.548Z,6.6
2018-01-06T06:42:09.133Z,6.56
2018-01-06T06:42:49.697Z,6.48
2018-01-06T06:43:30.360Z,6.51
2018-01-06T06:44:10.943Z,6.52
2018-01-06T06:44:51.583Z,6.45
2018-01-06T06:45:32.182Z,6.46
2018-01-06T06:46:12.772Z,6.52
2018-01-06T06:46:53.367Z,6.49
2018-01-06T06:47:33.935Z,6.51
2018-01-06T06:48:14.521Z,6.45
2018-01-06T06:48:55.141Z,6.52
2018-01-06T06:49:35.736Z,6.48
2018-01-06T06:50:16.304Z,6.52
2018-01-06T06:50:56.870Z,6.51
2018-01-06T06:51:37.432Z,6.44
2018-01-06T06:52:18.044Z,6.48
2018-01-06T06:52:58.610Z,6.59
2018-01-06T06:53:39.231Z,6.51
2018-01-06T06:54:19.800Z,6.48
2018-01-06T06:55:00.412Z,6.45
2018-01-06T06:55:41.001Z,6.44
2018-01-06T06:56:21.582Z,6.44
2018-01-06T06:57:02.165Z,6.49
2018-01-06T06:57:42.732Z,6.39
2018-01-06T06:58:23.347Z,6.39
2018-01-06T06:59:03.890Z,6.39
2018-01-06T06:59:44.469Z,6.35
2018-01-06T07:00:25.064Z,6.38
2018-01-06T07:01:05.639Z,6.42
2018-01-06T07:01:46.199Z,6.33
2018-01-06T07:02:26.804Z,6.36
2018-01-06T07:03:07.371Z,6.33
2018-01-06T07:03:47.960Z,6.39
2018-01-06T07:04:28.524Z,6.45
2018-01-06T07:05:09.090Z,6.48
2018-01-06T07:05:49.655Z,6.45
2018-01-06T07:06:30.231Z,6.44
2018-01-06T07:07:10.842Z,6.39
2018-01-06T07:07:51.366Z,6.46
2018-01-06T07:08:31.933Z,6.42
2018-01-06T07:09:12.598Z,6.35
2018-01-06T07:09:53.177Z,6.45
2018-01-06T07:10:33.761Z,6.42
2018-01-06T07:11:14.355Z,6.46
2018-01-06T07:11:54.921Z,6.49
2018-01-06T07:12:35.501Z,6.38
2018-01-06T07:13:16.089Z,6.45
2018-01-06T07:13:56.674Z,6.46
2018-01-06T07:14:37.275Z,6.48
2018-01-06T07:15:17.839Z,6.48
2018-01-06T07:15:58.417Z,6.42
2018-01-06T07:16:38.986Z,6.48
2018-01-06T07:17:19.569Z,6.49
2018-01-06T07:18:00.133Z,6.48
2018-01-06T07:18:40.685Z,6.48
2018-01-06T07:19:21.260Z,6.45
2018-01-06T07:20:01.823Z,6.54
2018-01-06T07:20:42.411Z,6.48
2018-01-06T07:22:55.520Z,6.52
2018-01-06T07:23:36.088Z,6.48
2018-01-06T07:24:16.674Z,6.48
2018-01-06T07:24:57.234Z,6.48
2018-01-06T07:26:55.072Z,6.49
2018-01-06T07:27:35.645Z,6.48
2018-01-06T07:28:16.232Z,6.52
2018-01-06T07:28:56.811Z,6.51
2018-01-06T07:29:37.474Z,6.49
2018-01-06T07:30:18.047Z,6.49
2018-01-06T07:30:58.639Z,6.57
2018-01-06T07:31:39.217Z,6.62
2018-01-06T07:32:19.787Z,6.46
2018-01-06T07:33:00.373Z,6.59
2018-01-06T07:33:40.944Z,6.64
2018-01-06T07:34:21.518Z,6.54
2018-01-06T07:35:02.103Z,6.52
2018-01-06T07:35:42.703Z,6.56
2018-01-06T07:36:23.293Z,6.54
2018-01-06T07:37:03.847Z,6.62
2018-01-06T07:37:44.424Z,6.52
2018-01-06T07:38:25.110Z,6.59
2018-01-06T07:39:05.669Z,6.57
2018-01-06T07:39:46.238Z,6.6
2018-01-06T07:40:26.922Z,6.64
2018-01-06T07:41:07.514Z,6.59
2018-01-06T07:41:48.124Z,6.59
2018-01-06T07:42:28.688Z,6.6
2018-01-06T07:43:09.247Z,6.62
2018-01-06T07:43:50.694Z,6.59
2018-01-06T07:44:31.425Z,6.62
2018-01-06T07:45:12.389Z,6.64
2018-01-06T07:45:53.338Z,6.62
2018-01-06T07:46:34.014Z,6.59
2018-01-06T07:47:14.696Z,6.59
2018-01-06T07:47:55.718Z,6.62
2018-01-06T07:48:36.407Z,6.57
2018-01-06T07:49:17.072Z,6.6
2018-01-06T07:49:57.910Z,6.57
2018-01-06T07:50:38.760Z,6.77
2018-01-06T07:51:19.977Z,6.74
2018-01-06T07:52:01.025Z,6.67
2018-01-06T07:52:42.346Z,6.7
2018-01-06T07:53:23.173Z,6.7
2018-01-06T07:54:04.289Z,6.72
2018-01-06T07:54:45.234Z,6.75
2018-01-06T07:55:25.869Z,6.67
2018-01-06T07:56:06.643Z,6.74
2018-01-06T07:56:47.232Z,6.7
2018-01-06T07:57:28.031Z,6.64
2018-01-06T07:58:08.666Z,6.63
2018-01-06T07:58:49.896Z,6.67
2018-01-06T07:59:30.631Z,6.7
2018-01-06T08:00:11.452Z,6.7
2018-01-06T08:00:52.584Z,6.79
2018-01-06T08:01:33.939Z,6.66
2018-01-06T08:02:14.735Z,6.7
2018-01-06T08:02:55.878Z,6.69
2018-01-06T08:03:37.026Z,6.7
2018-01-06T08:04:17.751Z,6.77
2018-01-06T08:04:58.333Z,6.67
2018-01-06T08:05:39.183Z,6.72
2018-01-06T08:06:19.843Z,6.75
2018-01-06T08:07:00.718Z,6.78
2018-01-06T08:07:41.518Z,6.72
2018-01-06T08:08:22.964Z,6.72
2018-01-06T08:09:03.532Z,6.72
2018-01-06T08:09:44.505Z,6.67
2018-01-06T08:10:25.095Z,6.72
2018-01-06T08:11:06.233Z,6.74
2018-01-06T08:11:47.102Z,6.63
2018-01-06T08:12:27.794Z,6.67
2018-01-06T08:13:08.385Z,6.66
2018-01-06T08:13:49.320Z,6.78
2018-01-06T08:14:30.122Z,6.7
2018-01-06T08:15:10.677Z,6.72
2018-01-06T08:15:51.238Z,6.7
2018-01-06T08:16:32.076Z,6.78
2018-01-06T08:17:13.216Z,6.84
2018-01-06T08:17:54.008Z,6.74
2018-01-06T08:18:34.600Z,6.78
2018-01-06T08:19:15.155Z,6.77
2018-01-06T08:19:55.752Z,6.74
2018-01-06T08:20:36.336Z,6.79
2018-01-06T08:21:16.904Z,6.82
2018-01-06T08:21:57.473Z,6.85
2018-01-06T08:22:38.061Z,6.92
2018-01-06T08:23:18.808Z,6.84
2018-01-06T08:23:59.367Z,6.89
2018-01-06T08:24:40.017Z,6.89
2018-01-06T08:25:20.703Z,6.84
2018-01-06T08:26:01.346Z,6.89
2018-01-06T08:26:41.930Z,6.89
2018-01-06T08:27:22.513Z,6.88
2018-01-06T08:28:03.084Z,6.85
2018-01-06T08:28:43.666Z,6.87
2018-01-06T08:29:24.304Z,6.93
2018-01-06T08:30:04.873Z,6.88
2018-01-06T08:30:45.450Z,6.99
2018-01-06T08:31:26.119Z,7
2018-01-06T08:32:06.687Z,6.96
2018-01-06T08:32:47.269Z,6.96
2018-01-06T08:33:27.848Z,7.02
2018-01-06T08:34:08.441Z,6.97
2018-01-06T08:34:49.030Z,6.95
2018-01-06T08:35:29.642Z,6.96
2018-01-06T08:36:10.209Z,6.99
2018-01-06T08:36:50.790Z,6.99
2018-01-06T08:37:31.364Z,6.96
2018-01-06T08:38:11.937Z,7.06
2018-01-06T08:38:52.528Z,7.06
2018-01-06T08:39:33.098Z,7.07
2018-01-06T08:40:13.677Z,7.11
2018-01-06T08:40:54.244Z,7.02
2018-01-06T08:41:34.840Z,7.05
2018-01-06T08:42:15.408Z,7.1
2018-01-06T08:42:56.018Z,7.15
2018-01-06T08:43:36.586Z,7.11
2018-01-06T08:44:17.201Z,7.15
2018-01-06T08:44:57.766Z,7.14
2018-01-06T08:45:38.340Z,7.18
2018-01-06T08:46:18.898Z,7.23
2018-01-06T08:46:59.475Z,7.24
2018-01-06T08:47:40.048Z,7.25
2018-01-06T08:48:20.652Z,7.21
2018-01-06T08:49:01.246Z,7.29
2018-01-06T08:49:41.892Z,7.23
2018-01-06T08:50:22.513Z,7.14
2018-01-06T08:51:03.068Z,7.2
2018-01-06T08:51:43.639Z,7.31
2018-01-06T08:52:24.224Z,7.29
2018-01-06T08:53:05.267Z,7.29
2018-01-06T08:53:50.389Z,7.31
2018-01-06T08:54:31.186Z,7.25
2018-01-06T08:55:12.545Z,7.24
2018-01-06T08:55:53.582Z,7.35
2018-01-06T08:56:35.320Z,7.25
2018-01-06T08:57:15.934Z,7.32
2018-01-06T08:57:56.540Z,7.31
2018-01-06T08:58:37.200Z,7.32
2018-01-06T08:59:17.779Z,7.36
2018-01-06T08:59:58.571Z,7.35
2018-01-06T09:00:39.492Z,7.35
2018-01-06T09:01:20.055Z,7.43
2018-01-06T09:02:00.692Z,7.42
2018-01-06T09:02:41.274Z,7.39
2018-01-06T09:03:21.862Z,7.42
2018-01-06T09:04:02.434Z,7.33
2018-01-06T09:04:43.369Z,7.4
2018-01-06T09:05:23.948Z,7.39